sensor_id;sensor_type;location;lat;lon;timestamp;temperature;humidity
37380;DHT22;23252;-33.992;18.480;2023-10-09T00:02:08;15.70;99.90
37380;DHT22;23252;-33.992;18.480;2023-10-09T00:04:37;15.80;99.90
37380;DHT22;23252;-33.992;18.480;2023-10-09T00:07:07;15.80;99.90
37380;DHT22;23252;-33.992;18.480;2023-10-09T00:09:38;15.80;99.90
37380;DHT22;23252;-33.992;18.480;2023-10-09T00:12:19;15.80;99.90
37380;DHT22;23252;-33.992;18.480;2023-10-09T00:14:52;15.80;99.90
37380;DHT22;23252;-33.992;18.480;2023-10-09T00:17:21;15.80;99.90
37380;DHT22;23252;-33.992;18.480;2023-10-09T00:19:48;15.80;99.90
37380;DHT22;23252;-33.992;18.480;2023-10-09T00:22:15;15.80;99.90
37380;DHT22;23252;-33.992;18.480;2023-10-09T00:24:57;15.80;99.90
37380;DHT22;23252;-33.992;18.480;2023-10-09T00:27:39;15.90;99.90
37380;DHT22;23252;-33.992;18.480;2023-10-09T00:30:16;15.80;99.90
37380;DHT22;23252;-33.992;18.480;2023-10-09T00:32:48;15.80;99.90
37380;DHT22;23252;-33.992;18.480;2023-10-09T00:35:37;15.80;99.90
37380;DHT22;23252;-33.992;18.480;2023-10-09T00:38:10;15.80;99.90
37380;DHT22;23252;-33.992;18.480;2023-10-09T00:40:42;15.80;99.90
37380;DHT22;23252;-33.992;18.480;2023-10-09T00:43:16;15.80;99.90
37380;DHT22;23252;-33.992;18.480;2023-10-09T00:45:47;15.80;99.90
37380;DHT22;23252;-33.992;18.480;2023-10-09T00:48:17;15.80;99.90
37380;DHT22;23252;-33.992;18.480;2023-10-09T00:50:59;15.70;99.90
37380;DHT22;23252;-33.992;18.480;2023-10-09T00:53:27;15.70;99.90
37380;DHT22;23252;-33.992;18.480;2023-10-09T00:56:01;15.70;99.90
37380;DHT22;23252;-33.992;18.480;2023-10-09T00:59:07;15.70;99.90
37380;DHT22;23252;-33.992;18.480;2023-10-09T01:01:35;15.70;99.90
37380;DHT22;23252;-33.992;18.480;2023-10-09T01:04:02;15.70;99.90
37380;DHT22;23252;-33.992;18.480;2023-10-09T01:06:45;15.60;99.90
37380;DHT22;23252;-33.992;18.480;2023-10-09T01:09:32;15.60;99.90
37380;DHT22;23252;-33.992;18.480;2023-10-09T01:12:08;15.60;99.90
37380;DHT22;23252;-33.992;18.480;2023-10-09T01:14:43;15.60;99.90
37380;DHT22;23252;-33.992;18.480;2023-10-09T01:17:10;15.60;99.90
37380;DHT22;23252;-33.992;18.480;2023-10-09T01:19:38;15.60;99.90
37380;DHT22;23252;-33.992;18.480;2023-10-09T01:22:04;15.70;99.90
37380;DHT22;23252;-33.992;18.480;2023-10-09T01:24:39;15.70;99.90
37380;DHT22;23252;-33.992;18.480;2023-10-09T01:27:05;15.70;99.90
37380;DHT22;23252;-33.992;18.480;2023-10-09T01:29:38;15.70;99.90
37380;DHT22;23252;-33.992;18.480;2023-10-09T01:32:08;15.60;99.90
37380;DHT22;23252;-33.992;18.480;2023-10-09T01:34:43;15.60;99.90
37380;DHT22;23252;-33.992;18.480;2023-10-09T01:37:17;15.60;99.90
37380;DHT22;23252;-33.992;18.480;2023-10-09T01:39:58;15.60;99.90
37380;DHT22;23252;-33.992;18.480;2023-10-09T01:42:26;15.60;99.90
37380;DHT22;23252;-33.992;18.480;2023-10-09T01:44:56;15.60;99.90
37380;DHT22;23252;-33.992;18.480;2023-10-09T01:47:35;15.60;99.90
37380;DHT22;23252;-33.992;18.480;2023-10-09T01:50:05;15.60;99.90
37380;DHT22;23252;-33.992;18.480;2023-10-09T01:52:36;15.60;99.90
37380;DHT22;23252;-33.992;18.480;2023-10-09T01:55:03;15.60;99.90
37380;DHT22;23252;-33.992;18.480;2023-10-09T01:57:53;15.50;99.90
37380;DHT22;23252;-33.992;18.480;2023-10-09T02:00:20;15.50;99.90
37380;DHT22;23252;-33.992;18.480;2023-10-09T02:02:51;15.50;99.90
37380;DHT22;23252;-33.992;18.480;2023-10-09T02:05:18;15.50;99.90
37380;DHT22;23252;-33.992;18.480;2023-10-09T02:07:44;15.60;99.90
37380;DHT22;23252;-33.992;18.480;2023-10-09T02:10:24;15.50;99.90
37380;DHT22;23252;-33.992;18.480;2023-10-09T02:12:51;15.50;99.90
37380;DHT22;23252;-33.992;18.480;2023-10-09T02:15:30;15.50;99.90
37380;DHT22;23252;-33.992;18.480;2023-10-09T02:18:17;15.50;99.90
37380;DHT22;23252;-33.992;18.480;2023-10-09T02:20:51;15.50;99.90
37380;DHT22;23252;-33.992;18.480;2023-10-09T02:23:31;15.50;99.90
37380;DHT22;23252;-33.992;18.480;2023-10-09T02:26:19;15.50;99.90
37380;DHT22;23252;-33.992;18.480;2023-10-09T02:28:56;15.40;99.90
37380;DHT22;23252;-33.992;18.480;2023-10-09T02:31:30;15.40;99.90
37380;DHT22;23252;-33.992;18.480;2023-10-09T02:34:07;15.40;99.90
37380;DHT22;23252;-33.992;18.480;2023-10-09T02:36:41;15.40;99.90
37380;DHT22;23252;-33.992;18.480;2023-10-09T02:39:09;15.40;99.90
37380;DHT22;23252;-33.992;18.480;2023-10-09T02:41:56;15.40;99.90
37380;DHT22;23252;-33.992;18.480;2023-10-09T02:44:45;15.40;99.90
37380;DHT22;23252;-33.992;18.480;2023-10-09T02:47:20;15.40;99.90
37380;DHT22;23252;-33.992;18.480;2023-10-09T02:49:55;15.40;99.90
37380;DHT22;23252;-33.992;18.480;2023-10-09T02:52:42;15.40;99.90
37380;DHT22;23252;-33.992;18.480;2023-10-09T02:55:08;15.40;99.90
37380;DHT22;23252;-33.992;18.480;2023-10-09T02:57:48;15.40;99.90
37380;DHT22;23252;-33.992;18.480;2023-10-09T03:00:18;15.30;99.90
37380;DHT22;23252;-33.992;18.480;2023-10-09T03:02:45;15.30;99.90
37380;DHT22;23252;-33.992;18.480;2023-10-09T03:05:16;15.30;99.90
37380;DHT22;23252;-33.992;18.480;2023-10-09T03:07:43;15.30;99.90
37380;DHT22;23252;-33.992;18.480;2023-10-09T03:10:10;15.30;99.90
37380;DHT22;23252;-33.992;18.480;2023-10-09T03:12:37;15.30;99.90
37380;DHT22;23252;-33.992;18.480;2023-10-09T03:15:06;15.40;99.90
37380;DHT22;23252;-33.992;18.480;2023-10-09T03:17:34;15.40;99.90
37380;DHT22;23252;-33.992;18.480;2023-10-09T03:20:05;15.40;99.90
37380;DHT22;23252;-33.992;18.480;2023-10-09T03:22:39;15.40;99.90
37380;DHT22;23252;-33.992;18.480;2023-10-09T03:25:06;15.30;99.90
37380;DHT22;23252;-33.992;18.480;2023-10-09T03:27:44;15.30;99.90
37380;DHT22;23252;-33.992;18.480;2023-10-09T03:30:17;15.30;99.90
37380;DHT22;23252;-33.992;18.480;2023-10-09T03:32:50;15.30;99.90
37380;DHT22;23252;-33.992;18.480;2023-10-09T03:35:18;15.30;99.90
37380;DHT22;23252;-33.992;18.480;2023-10-09T03:37:58;15.30;99.90
37380;DHT22;23252;-33.992;18.480;2023-10-09T03:40:43;15.30;99.90
37380;DHT22;23252;-33.992;18.480;2023-10-09T03:43:10;15.30;99.90
37380;DHT22;23252;-33.992;18.480;2023-10-09T03:45:38;15.20;99.90
37380;DHT22;23252;-33.992;18.480;2023-10-09T03:48:11;15.20;99.90
37380;DHT22;23252;-33.992;18.480;2023-10-09T03:50:47;15.20;99.90
37380;DHT22;23252;-33.992;18.480;2023-10-09T03:53:15;15.20;99.90
37380;DHT22;23252;-33.992;18.480;2023-10-09T03:55:41;15.20;99.90
37380;DHT22;23252;-33.992;18.480;2023-10-09T03:58:08;15.20;99.90
37380;DHT22;23252;-33.992;18.480;2023-10-09T04:00:38;15.20;99.90
37380;DHT22;23252;-33.992;18.480;2023-10-09T04:03:11;15.30;99.90
37380;DHT22;23252;-33.992;18.480;2023-10-09T04:05:41;15.20;99.90
37380;DHT22;23252;-33.992;18.480;2023-10-09T04:08:12;15.20;99.90
37380;DHT22;23252;-33.992;18.480;2023-10-09T04:10:46;15.20;99.90
37380;DHT22;23252;-33.992;18.480;2023-10-09T04:13:19;15.20;99.90
37380;DHT22;23252;-33.992;18.480;2023-10-09T04:15:50;15.20;99.90
37380;DHT22;23252;-33.992;18.480;2023-10-09T04:18:20;15.20;99.90
37380;DHT22;23252;-33.992;18.480;2023-10-09T04:20:54;15.10;99.90
37380;DHT22;23252;-33.992;18.480;2023-10-09T04:23:39;15.20;99.90
37380;DHT22;23252;-33.992;18.480;2023-10-09T04:26:28;15.20;99.90
37380;DHT22;23252;-33.992;18.480;2023-10-09T04:28:55;15.20;99.90
37380;DHT22;23252;-33.992;18.480;2023-10-09T04:31:22;15.20;99.90
37380;DHT22;23252;-33.992;18.480;2023-10-09T04:34:00;15.20;99.90
37380;DHT22;23252;-33.992;18.480;2023-10-09T04:36:47;15.20;99.90
37380;DHT22;23252;-33.992;18.480;2023-10-09T04:39:16;15.20;99.90
37380;DHT22;23252;-33.992;18.480;2023-10-09T04:42:02;15.30;99.90
37380;DHT22;23252;-33.992;18.480;2023-10-09T04:44:47;15.30;99.90
37380;DHT22;23252;-33.992;18.480;2023-10-09T04:47:46;15.30;99.90
37380;DHT22;23252;-33.992;18.480;2023-10-09T04:50:25;15.30;99.90
37380;DHT22;23252;-33.992;18.480;2023-10-09T04:52:57;15.40;99.90
37380;DHT22;23252;-33.992;18.480;2023-10-09T04:55:44;15.40;99.90
37380;DHT22;23252;-33.992;18.480;2023-10-09T04:58:24;15.40;99.90
37380;DHT22;23252;-33.992;18.480;2023-10-09T05:00:55;15.40;99.90
37380;DHT22;23252;-33.992;18.480;2023-10-09T05:03:24;15.50;99.90
37380;DHT22;23252;-33.992;18.480;2023-10-09T05:05:54;15.50;99.90
37380;DHT22;23252;-33.992;18.480;2023-10-09T05:08:46;15.50;99.90
37380;DHT22;23252;-33.992;18.480;2023-10-09T05:11:15;15.60;99.90
37380;DHT22;23252;-33.992;18.480;2023-10-09T05:14:03;15.50;99.90
37380;DHT22;23252;-33.992;18.480;2023-10-09T05:16:39;15.50;99.90
37380;DHT22;23252;-33.992;18.480;2023-10-09T05:19:26;15.60;99.90
37380;DHT22;23252;-33.992;18.480;2023-10-09T05:22:10;15.70;99.90
37380;DHT22;23252;-33.992;18.480;2023-10-09T05:24:58;15.70;99.90
37380;DHT22;23252;-33.992;18.480;2023-10-09T05:27:25;15.80;99.90
37380;DHT22;23252;-33.992;18.480;2023-10-09T05:30:12;15.80;99.90
37380;DHT22;23252;-33.992;18.480;2023-10-09T05:32:54;15.80;99.90
37380;DHT22;23252;-33.992;18.480;2023-10-09T05:35:25;15.90;99.90
37380;DHT22;23252;-33.992;18.480;2023-10-09T05:38:10;15.90;99.90
37380;DHT22;23252;-33.992;18.480;2023-10-09T05:40:51;15.90;99.90
37380;DHT22;23252;-33.992;18.480;2023-10-09T05:43:31;16.00;99.90
37380;DHT22;23252;-33.992;18.480;2023-10-09T05:46:15;16.00;99.90
37380;DHT22;23252;-33.992;18.480;2023-10-09T05:48:42;16.10;99.90
37380;DHT22;23252;-33.992;18.480;2023-10-09T05:51:09;16.10;99.90
37380;DHT22;23252;-33.992;18.480;2023-10-09T05:53:35;16.20;99.90
37380;DHT22;23252;-33.992;18.480;2023-10-09T05:56:12;16.20;99.90
37380;DHT22;23252;-33.992;18.480;2023-10-09T05:59:17;16.30;99.90
37380;DHT22;23252;-33.992;18.480;2023-10-09T06:02:02;16.30;99.90
37380;DHT22;23252;-33.992;18.480;2023-10-09T06:04:28;16.40;99.90
37380;DHT22;23252;-33.992;18.480;2023-10-09T06:07:27;16.40;99.90
37380;DHT22;23252;-33.992;18.480;2023-10-09T06:10:13;16.50;99.90
37380;DHT22;23252;-33.992;18.480;2023-10-09T06:12:59;16.50;99.90
37380;DHT22;23252;-33.992;18.480;2023-10-09T06:15:38;16.60;99.90
37380;DHT22;23252;-33.992;18.480;2023-10-09T06:18:16;16.60;99.90
37380;DHT22;23252;-33.992;18.480;2023-10-09T06:20:52;16.70;99.90
37380;DHT22;23252;-33.992;18.480;2023-10-09T06:23:56;16.70;99.90
37380;DHT22;23252;-33.992;18.480;2023-10-09T06:26:49;16.70;99.90
37380;DHT22;23252;-33.992;18.480;2023-10-09T06:29:26;16.80;99.90
37380;DHT22;23252;-33.992;18.480;2023-10-09T06:32:06;16.80;99.90
37380;DHT22;23252;-33.992;18.480;2023-10-09T06:34:50;16.80;99.90
37380;DHT22;23252;-33.992;18.480;2023-10-09T06:37:26;16.80;99.90
37380;DHT22;23252;-33.992;18.480;2023-10-09T06:40:01;16.90;99.90
37380;DHT22;23252;-33.992;18.480;2023-10-09T06:42:56;17.00;99.90
37380;DHT22;23252;-33.992;18.480;2023-10-09T06:45:23;17.10;99.90
37380;DHT22;23252;-33.992;18.480;2023-10-09T06:48:10;17.20;99.90
37380;DHT22;23252;-33.992;18.480;2023-10-09T06:50:57;17.30;99.90
37380;DHT22;23252;-33.992;18.480;2023-10-09T06:53:34;17.40;99.90
37380;DHT22;23252;-33.992;18.480;2023-10-09T06:56:26;17.40;99.90
37380;DHT22;23252;-33.992;18.480;2023-10-09T07:01:30;17.60;99.90
37380;DHT22;23252;-33.992;18.480;2023-10-09T07:04:06;17.70;99.90
37380;DHT22;23252;-33.992;18.480;2023-10-09T07:06:49;17.80;99.90
37380;DHT22;23252;-33.992;18.480;2023-10-09T07:09:17;17.90;99.90
37380;DHT22;23252;-33.992;18.480;2023-10-09T07:11:52;17.90;99.90
37380;DHT22;23252;-33.992;18.480;2023-10-09T07:14:20;18.00;99.90
37380;DHT22;23252;-33.992;18.480;2023-10-09T07:16:56;18.10;99.90
37380;DHT22;23252;-33.992;18.480;2023-10-09T07:19:30;18.10;99.90
37380;DHT22;23252;-33.992;18.480;2023-10-09T07:22:03;18.20;99.90
37380;DHT22;23252;-33.992;18.480;2023-10-09T07:24:33;18.30;99.90
37380;DHT22;23252;-33.992;18.480;2023-10-09T07:27:25;18.30;99.90
37380;DHT22;23252;-33.992;18.480;2023-10-09T07:30:20;18.40;99.90
37380;DHT22;23252;-33.992;18.480;2023-10-09T07:33:06;18.40;99.90
37380;DHT22;23252;-33.992;18.480;2023-10-09T07:35:46;18.50;99.90
37380;DHT22;23252;-33.992;18.480;2023-10-09T07:38:22;18.60;99.90
37380;DHT22;23252;-33.992;18.480;2023-10-09T07:40:55;18.70;99.90
37380;DHT22;23252;-33.992;18.480;2023-10-09T07:43:42;18.80;99.90
37380;DHT22;23252;-33.992;18.480;2023-10-09T07:46:11;18.80;99.90
37380;DHT22;23252;-33.992;18.480;2023-10-09T07:48:56;18.80;99.90
37380;DHT22;23252;-33.992;18.480;2023-10-09T07:51:25;18.90;99.90
37380;DHT22;23252;-33.992;18.480;2023-10-09T07:53:59;19.00;99.90
37380;DHT22;23252;-33.992;18.480;2023-10-09T07:56:35;19.00;99.90
37380;DHT22;23252;-33.992;18.480;2023-10-09T07:59:12;19.10;99.90
37380;DHT22;23252;-33.992;18.480;2023-10-09T08:01:49;19.30;99.90
37380;DHT22;23252;-33.992;18.480;2023-10-09T08:04:23;19.40;99.90
37380;DHT22;23252;-33.992;18.480;2023-10-09T08:07:10;19.40;99.90
37380;DHT22;23252;-33.992;18.480;2023-10-09T08:09:45;19.50;99.90
37380;DHT22;23252;-33.992;18.480;2023-10-09T08:12:16;19.50;99.90
37380;DHT22;23252;-33.992;18.480;2023-10-09T08:15:03;19.50;99.90
37380;DHT22;23252;-33.992;18.480;2023-10-09T08:17:50;19.40;99.90
37380;DHT22;23252;-33.992;18.480;2023-10-09T08:20:24;19.50;99.90
37380;DHT22;23252;-33.992;18.480;2023-10-09T08:22:55;19.50;99.90
37380;DHT22;23252;-33.992;18.480;2023-10-09T08:25:26;19.50;99.90
37380;DHT22;23252;-33.992;18.480;2023-10-09T08:28:00;19.50;99.90
37380;DHT22;23252;-33.992;18.480;2023-10-09T08:30:45;19.60;99.90
37380;DHT22;23252;-33.992;18.480;2023-10-09T08:33:17;19.70;99.90
37380;DHT22;23252;-33.992;18.480;2023-10-09T08:36:08;19.80;99.90
37380;DHT22;23252;-33.992;18.480;2023-10-09T08:38:35;19.80;99.90
37380;DHT22;23252;-33.992;18.480;2023-10-09T08:41:10;19.80;99.90
37380;DHT22;23252;-33.992;18.480;2023-10-09T08:43:51;19.80;99.90
37380;DHT22;23252;-33.992;18.480;2023-10-09T08:46:26;20.00;99.90
37380;DHT22;23252;-33.992;18.480;2023-10-09T08:48:57;20.10;99.90
37380;DHT22;23252;-33.992;18.480;2023-10-09T08:51:32;20.10;99.90
37380;DHT22;23252;-33.992;18.480;2023-10-09T08:54:01;20.20;99.90
37380;DHT22;23252;-33.992;18.480;2023-10-09T08:56:28;20.30;99.90
37380;DHT22;23252;-33.992;18.480;2023-10-09T08:58:57;20.40;99.90
37380;DHT22;23252;-33.992;18.480;2023-10-09T09:01:25;20.40;99.90
37380;DHT22;23252;-33.992;18.480;2023-10-09T09:03:54;20.40;99.90
37380;DHT22;23252;-33.992;18.480;2023-10-09T09:06:37;20.50;99.90
37380;DHT22;23252;-33.992;18.480;2023-10-09T09:09:11;20.50;99.90
37380;DHT22;23252;-33.992;18.480;2023-10-09T09:11:42;20.60;99.90
37380;DHT22;23252;-33.992;18.480;2023-10-09T09:14:15;20.60;99.90
37380;DHT22;23252;-33.992;18.480;2023-10-09T09:16:48;20.70;99.90
37380;DHT22;23252;-33.992;18.480;2023-10-09T09:19:15;20.90;99.90
37380;DHT22;23252;-33.992;18.480;2023-10-09T09:21:56;21.00;99.90
37380;DHT22;23252;-33.992;18.480;2023-10-09T09:24:25;21.10;99.90
37380;DHT22;23252;-33.992;18.480;2023-10-09T09:27:07;21.20;99.90
37380;DHT22;23252;-33.992;18.480;2023-10-09T09:30:00;21.30;99.90
37380;DHT22;23252;-33.992;18.480;2023-10-09T09:32:33;21.30;99.90
37380;DHT22;23252;-33.992;18.480;2023-10-09T09:35:03;21.30;99.90
37380;DHT22;23252;-33.992;18.480;2023-10-09T09:37:34;21.30;99.90
37380;DHT22;23252;-33.992;18.480;2023-10-09T09:40:10;21.40;99.90
37380;DHT22;23252;-33.992;18.480;2023-10-09T09:43:00;21.40;99.90
37380;DHT22;23252;-33.992;18.480;2023-10-09T09:45:43;21.40;99.90
37380;DHT22;23252;-33.992;18.480;2023-10-09T09:48:12;21.40;99.90
37380;DHT22;23252;-33.992;18.480;2023-10-09T09:50:42;21.50;99.90
37380;DHT22;23252;-33.992;18.480;2023-10-09T09:53:14;21.50;99.90
37380;DHT22;23252;-33.992;18.480;2023-10-09T09:55:54;21.50;99.90
37380;DHT22;23252;-33.992;18.480;2023-10-09T09:58:25;21.50;99.90
37380;DHT22;23252;-33.992;18.480;2023-10-09T10:01:06;21.60;99.90
37380;DHT22;23252;-33.992;18.480;2023-10-09T10:04:01;21.70;99.90
37380;DHT22;23252;-33.992;18.480;2023-10-09T10:06:33;21.80;99.90
37380;DHT22;23252;-33.992;18.480;2023-10-09T10:09:01;21.80;99.90
37380;DHT22;23252;-33.992;18.480;2023-10-09T10:11:47;21.90;99.90
37380;DHT22;23252;-33.992;18.480;2023-10-09T10:14:21;22.00;99.90
37380;DHT22;23252;-33.992;18.480;2023-10-09T10:17:05;22.10;99.90
37380;DHT22;23252;-33.992;18.480;2023-10-09T10:22:31;22.20;99.90
37380;DHT22;23252;-33.992;18.480;2023-10-09T10:24:59;22.10;99.90
37380;DHT22;23252;-33.992;18.480;2023-10-09T10:27:35;21.90;99.90
37380;DHT22;23252;-33.992;18.480;2023-10-09T10:30:30;21.80;99.90
37380;DHT22;23252;-33.992;18.480;2023-10-09T10:33:01;21.60;99.90
37380;DHT22;23252;-33.992;18.480;2023-10-09T10:35:42;21.60;99.90
37380;DHT22;23252;-33.992;18.480;2023-10-09T10:38:33;21.60;99.90
37380;DHT22;23252;-33.992;18.480;2023-10-09T10:43:47;21.90;99.90
37380;DHT22;23252;-33.992;18.480;2023-10-09T10:46:16;21.90;99.90
37380;DHT22;23252;-33.992;18.480;2023-10-09T10:49:02;22.10;99.90
37380;DHT22;23252;-33.992;18.480;2023-10-09T10:51:51;22.30;99.90
37380;DHT22;23252;-33.992;18.480;2023-10-09T10:54:28;22.50;99.90
37380;DHT22;23252;-33.992;18.480;2023-10-09T10:57:03;22.50;99.90
37380;DHT22;23252;-33.992;18.480;2023-10-09T10:59:46;22.40;99.90
37380;DHT22;23252;-33.992;18.480;2023-10-09T11:02:17;22.40;99.90
37380;DHT22;23252;-33.992;18.480;2023-10-09T11:04:49;22.40;99.90
37380;DHT22;23252;-33.992;18.480;2023-10-09T11:07:22;22.40;99.90
37380;DHT22;23252;-33.992;18.480;2023-10-09T11:09:54;22.40;99.90
37380;DHT22;23252;-33.992;18.480;2023-10-09T11:12:45;22.30;99.90
37380;DHT22;23252;-33.992;18.480;2023-10-09T11:15:36;22.30;99.90
37380;DHT22;23252;-33.992;18.480;2023-10-09T11:18:22;22.40;99.90
37380;DHT22;23252;-33.992;18.480;2023-10-09T11:20:55;22.70;99.90
37380;DHT22;23252;-33.992;18.480;2023-10-09T11:23:42;22.80;99.90
37380;DHT22;23252;-33.992;18.480;2023-10-09T11:26:18;23.00;99.90
37380;DHT22;23252;-33.992;18.480;2023-10-09T11:31:59;23.50;99.90
37380;DHT22;23252;-33.992;18.480;2023-10-09T11:34:27;23.80;99.90
37380;DHT22;23252;-33.992;18.480;2023-10-09T11:39:38;23.80;99.90
37380;DHT22;23252;-33.992;18.480;2023-10-09T11:42:23;23.90;99.90
37380;DHT22;23252;-33.992;18.480;2023-10-09T11:45:03;23.70;99.90
37380;DHT22;23252;-33.992;18.480;2023-10-09T11:47:49;23.70;99.90
37380;DHT22;23252;-33.992;18.480;2023-10-09T11:50:43;23.60;99.90
37380;DHT22;23252;-33.992;18.480;2023-10-09T11:53:15;23.60;99.90
37380;DHT22;23252;-33.992;18.480;2023-10-09T11:56:01;23.90;99.90
37380;DHT22;23252;-33.992;18.480;2023-10-09T11:58:28;24.50;99.90
37380;DHT22;23252;-33.992;18.480;2023-10-09T12:00:56;25.00;99.90
37380;DHT22;23252;-33.992;18.480;2023-10-09T12:03:29;25.20;99.90
37380;DHT22;23252;-33.992;18.480;2023-10-09T12:06:03;25.40;99.90
37380;DHT22;23252;-33.992;18.480;2023-10-09T12:08:38;25.60;99.90
37380;DHT22;23252;-33.992;18.480;2023-10-09T12:11:15;25.90;99.90
37380;DHT22;23252;-33.992;18.480;2023-10-09T12:13:49;26.10;99.90
37380;DHT22;23252;-33.992;18.480;2023-10-09T12:16:24;26.30;99.90
37380;DHT22;23252;-33.992;18.480;2023-10-09T12:21:24;26.20;99.90
37380;DHT22;23252;-33.992;18.480;2023-10-09T12:26:19;26.30;99.90
37380;DHT22;23252;-33.992;18.480;2023-10-09T12:28:46;26.70;99.90
37380;DHT22;23252;-33.992;18.480;2023-10-09T12:31:16;26.90;99.90
37380;DHT22;23252;-33.992;18.480;2023-10-09T12:33:46;26.80;99.90
37380;DHT22;23252;-33.992;18.480;2023-10-09T12:36:14;26.50;99.90
37380;DHT22;23252;-33.992;18.480;2023-10-09T12:38:50;26.50;99.90
37380;DHT22;23252;-33.992;18.480;2023-10-09T12:41:25;26.50;99.90
37380;DHT22;23252;-33.992;18.480;2023-10-09T12:43:56;27.00;99.90
37380;DHT22;23252;-33.992;18.480;2023-10-09T12:46:26;27.40;99.90
37380;DHT22;23252;-33.992;18.480;2023-10-09T12:48:54;27.20;99.90
37380;DHT22;23252;-33.992;18.480;2023-10-09T12:51:21;27.20;99.90
37380;DHT22;23252;-33.992;18.480;2023-10-09T12:53:55;27.40;99.90
37380;DHT22;23252;-33.992;18.480;2023-10-09T12:56:28;27.40;99.90
37380;DHT22;23252;-33.992;18.480;2023-10-09T12:59:03;27.40;99.90
37380;DHT22;23252;-33.992;18.480;2023-10-09T13:01:34;27.30;99.90
37380;DHT22;23252;-33.992;18.480;2023-10-09T13:04:13;27.40;99.90
37380;DHT22;23252;-33.992;18.480;2023-10-09T13:06:46;27.30;99.90
37380;DHT22;23252;-33.992;18.480;2023-10-09T13:09:17;27.20;99.90
37380;DHT22;23252;-33.992;18.480;2023-10-09T13:12:09;26.90;99.90
37380;DHT22;23252;-33.992;18.480;2023-10-09T13:14:44;26.50;99.90
37380;DHT22;23252;-33.992;18.480;2023-10-09T13:17:11;26.70;99.90
37380;DHT22;23252;-33.992;18.480;2023-10-09T13:19:39;26.80;99.90
37380;DHT22;23252;-33.992;18.480;2023-10-09T13:22:06;26.90;99.90
37380;DHT22;23252;-33.992;18.480;2023-10-09T13:24:39;27.20;99.90
37380;DHT22;23252;-33.992;18.480;2023-10-09T13:27:06;27.70;99.90
37380;DHT22;23252;-33.992;18.480;2023-10-09T13:29:37;28.20;99.90
37380;DHT22;23252;-33.992;18.480;2023-10-09T13:32:07;28.30;99.90
37380;DHT22;23252;-33.992;18.480;2023-10-09T13:34:41;28.10;99.90
37380;DHT22;23252;-33.992;18.480;2023-10-09T13:37:11;28.10;99.90
37380;DHT22;23252;-33.992;18.480;2023-10-09T13:39:40;28.40;99.90
37380;DHT22;23252;-33.992;18.480;2023-10-09T13:42:18;28.40;99.90
37380;DHT22;23252;-33.992;18.480;2023-10-09T13:44:44;28.20;99.90
37380;DHT22;23252;-33.992;18.480;2023-10-09T13:47:14;27.80;99.90
37380;DHT22;23252;-33.992;18.480;2023-10-09T13:49:57;27.70;99.90
37380;DHT22;23252;-33.992;18.480;2023-10-09T13:52:25;27.20;99.90
37380;DHT22;23252;-33.992;18.480;2023-10-09T13:54:53;27.10;99.90
37380;DHT22;23252;-33.992;18.480;2023-10-09T13:57:21;27.30;99.90
37380;DHT22;23252;-33.992;18.480;2023-10-09T13:59:57;27.10;99.90
37380;DHT22;23252;-33.992;18.480;2023-10-09T14:02:26;27.10;99.90
37380;DHT22;23252;-33.992;18.480;2023-10-09T14:04:54;27.00;99.90
37380;DHT22;23252;-33.992;18.480;2023-10-09T14:07:23;26.80;99.90
37380;DHT22;23252;-33.992;18.480;2023-10-09T14:10:01;26.70;99.90
37380;DHT22;23252;-33.992;18.480;2023-10-09T14:12:33;26.40;99.90
37380;DHT22;23252;-33.992;18.480;2023-10-09T14:15:00;25.70;99.90
37380;DHT22;23252;-33.992;18.480;2023-10-09T14:17:29;25.10;99.90
37380;DHT22;23252;-33.992;18.480;2023-10-09T14:19:57;24.30;99.90
37380;DHT22;23252;-33.992;18.480;2023-10-09T14:22:44;23.90;99.90
37380;DHT22;23252;-33.992;18.480;2023-10-09T14:25:12;23.60;99.90
37380;DHT22;23252;-33.992;18.480;2023-10-09T14:27:41;23.20;99.90
37380;DHT22;23252;-33.992;18.480;2023-10-09T14:30:08;22.90;99.90
37380;DHT22;23252;-33.992;18.480;2023-10-09T14:32:39;22.80;99.90
37380;DHT22;23252;-33.992;18.480;2023-10-09T14:35:17;22.80;99.90
37380;DHT22;23252;-33.992;18.480;2023-10-09T14:37:47;22.90;99.90
37380;DHT22;23252;-33.992;18.480;2023-10-09T14:40:14;22.90;99.90
37380;DHT22;23252;-33.992;18.480;2023-10-09T14:42:49;22.80;99.90
37380;DHT22;23252;-33.992;18.480;2023-10-09T14:45:18;22.50;99.90
37380;DHT22;23252;-33.992;18.480;2023-10-09T14:47:51;22.30;99.90
37380;DHT22;23252;-33.992;18.480;2023-10-09T14:50:21;22.10;99.90
37380;DHT22;23252;-33.992;18.480;2023-10-09T14:52:51;21.90;99.90
37380;DHT22;23252;-33.992;18.480;2023-10-09T14:55:17;21.80;99.90
37380;DHT22;23252;-33.992;18.480;2023-10-09T14:57:52;21.80;99.90
37380;DHT22;23252;-33.992;18.480;2023-10-09T15:00:19;21.90;99.90
37380;DHT22;23252;-33.992;18.480;2023-10-09T15:02:52;21.80;99.90
37380;DHT22;23252;-33.992;18.480;2023-10-09T15:05:19;21.80;99.90
37380;DHT22;23252;-33.992;18.480;2023-10-09T15:07:49;21.70;99.90
37380;DHT22;23252;-33.992;18.480;2023-10-09T15:10:15;21.70;99.90
37380;DHT22;23252;-33.992;18.480;2023-10-09T15:12:44;21.50;99.90
37380;DHT22;23252;-33.992;18.480;2023-10-09T15:15:13;21.30;99.90
37380;DHT22;23252;-33.992;18.480;2023-10-09T15:17:41;21.20;99.90
37380;DHT22;23252;-33.992;18.480;2023-10-09T15:20:12;21.10;99.90
37380;DHT22;23252;-33.992;18.480;2023-10-09T15:22:42;21.20;99.90
37380;DHT22;23252;-33.992;18.480;2023-10-09T15:25:09;21.20;99.90
37380;DHT22;23252;-33.992;18.480;2023-10-09T15:27:41;21.30;99.90
37380;DHT22;23252;-33.992;18.480;2023-10-09T15:30:08;21.20;99.90
37380;DHT22;23252;-33.992;18.480;2023-10-09T15:32:43;21.30;99.90
37380;DHT22;23252;-33.992;18.480;2023-10-09T15:35:12;21.10;99.90
37380;DHT22;23252;-33.992;18.480;2023-10-09T15:37:39;21.00;99.90
37380;DHT22;23252;-33.992;18.480;2023-10-09T15:40:11;20.80;99.90
37380;DHT22;23252;-33.992;18.480;2023-10-09T15:42:45;20.80;99.90
37380;DHT22;23252;-33.992;18.480;2023-10-09T15:45:19;20.70;99.90
37380;DHT22;23252;-33.992;18.480;2023-10-09T15:47:50;20.60;99.90
37380;DHT22;23252;-33.992;18.480;2023-10-09T15:50:18;20.60;99.90
37380;DHT22;23252;-33.992;18.480;2023-10-09T15:52:48;20.60;99.90
37380;DHT22;23252;-33.992;18.480;2023-10-09T15:55:17;20.50;99.90
37380;DHT22;23252;-33.992;18.480;2023-10-09T15:57:47;20.40;99.90
37380;DHT22;23252;-33.992;18.480;2023-10-09T16:00:23;20.30;99.90
37380;DHT22;23252;-33.992;18.480;2023-10-09T16:02:55;20.20;99.90
37380;DHT22;23252;-33.992;18.480;2023-10-09T16:05:25;20.10;99.90
37380;DHT22;23252;-33.992;18.480;2023-10-09T16:07:52;20.10;99.90
37380;DHT22;23252;-33.992;18.480;2023-10-09T16:10:19;20.10;99.90